createdAt,value
2019-01-10T00:00:50.745Z,0.57
2019-01-10T00:03:18.705Z,1.63
2019-01-10T00:05:46.877Z,0.60
2019-01-10T00:08:15.029Z,0.60
2019-01-10T00:10:44.349Z,0.57
2019-01-10T00:13:12.266Z,1.57
2019-01-10T00:15:40.403Z,0.80
2019-01-10T00:18:08.273Z,1.80
2019-01-10T00:20:36.520Z,0.67
2019-01-10T00:23:04.461Z,0.80
2019-01-10T00:25:32.696Z,0.50
2019-01-10T00:28:00.858Z,1.37
2019-01-10T00:30:29.097Z,0.60
2019-01-10T00:32:56.921Z,0.60
2019-01-10T00:37:53.470Z,0.60
2019-01-10T00:40:22.934Z,0.57
2019-01-10T00:42:50.723Z,0.60
2019-01-10T00:45:18.397Z,0.50
2019-01-10T00:47:46.184Z,0.50
2019-01-10T00:50:16.121Z,0.50
2019-01-10T00:52:43.788Z,1.83
2019-01-10T00:55:11.470Z,1.13
2019-01-10T00:57:40.173Z,2.50
2019-01-10T01:00:11.395Z,0.83
2019-01-10T01:02:39.142Z,1.20
2019-01-10T01:05:08.726Z,1.03
2019-01-10T01:07:36.440Z,1.53
2019-01-10T01:10:05.686Z,1.03
2019-01-10T01:12:33.482Z,0.53
2019-01-10T01:15:01.284Z,0.70
2019-01-10T01:17:29.318Z,0.73
2019-01-10T01:19:57.033Z,1.70
2019-01-10T01:22:24.638Z,0.80
2019-01-10T01:24:53.138Z,0.97
2019-01-10T01:27:20.796Z,1.67
2019-01-10T01:29:49.300Z,1.27
2019-01-10T01:32:17.665Z,1.43
2019-01-10T01:34:45.455Z,0.67
2019-01-10T01:37:13.774Z,0.60
2019-01-10T01:39:42.064Z,1.23
2019-01-10T01:42:09.755Z,0.77
2019-01-10T01:44:37.442Z,1.20
2019-01-10T01:47:07.432Z,0.93
2019-01-10T01:49:35.076Z,0.80
2019-01-10T01:52:03.590Z,1.00
2019-01-10T01:54:31.231Z,1.57
2019-01-10T01:57:01.319Z,0.90
2019-01-10T01:59:29.033Z,0.70
2019-01-10T02:01:56.865Z,1.20
2019-01-10T02:04:28.711Z,1.17
2019-01-10T02:06:56.487Z,1.77
2019-01-10T02:09:24.261Z,1.00
2019-01-10T02:11:52.493Z,1.03
2019-01-10T02:14:20.263Z,0.60
2019-01-10T02:16:48.554Z,0.83
2019-01-10T02:19:16.708Z,1.00
2019-01-10T02:21:44.773Z,0.60
2019-01-10T02:24:15.015Z,1.50
2019-01-10T02:26:45.063Z,0.93
2019-01-10T02:29:12.814Z,0.97
2019-01-10T02:31:40.608Z,0.80
2019-01-10T02:34:14.042Z,0.60
2019-01-10T02:36:42.046Z,1.10
2019-01-10T02:39:09.845Z,1.00
2019-01-10T02:41:38.946Z,0.70
2019-01-10T02:44:07.143Z,1.60
2019-01-10T02:46:34.911Z,1.20
2019-01-10T02:49:03.758Z,0.70
2019-01-10T02:51:31.883Z,1.00
2019-01-10T02:53:59.769Z,1.73
2019-01-10T02:56:28.278Z,0.57
2019-01-10T02:58:56.403Z,1.00
2019-01-10T03:01:24.139Z,0.80
2019-01-10T03:03:53.088Z,1.10
2019-01-10T03:06:21.085Z,1.03
2019-01-10T03:08:49.845Z,0.80
2019-01-10T03:11:19.255Z,1.00
2019-01-10T03:13:47.331Z,1.20
2019-01-10T03:16:16.547Z,0.87
2019-01-10T03:18:44.284Z,0.83
2019-01-10T03:21:12.024Z,1.37
2019-01-10T03:23:39.802Z,1.67
2019-01-10T03:26:07.937Z,1.37
2019-01-10T03:28:36.468Z,1.40
2019-01-10T03:31:06.753Z,1.00
2019-01-10T03:33:34.862Z,1.30
2019-01-10T03:36:03.105Z,0.67
2019-01-10T03:38:32.248Z,1.03
2019-01-10T03:41:00.372Z,1.73
2019-01-10T03:43:28.382Z,1.47
2019-01-10T03:45:56.153Z,2.10
2019-01-10T03:48:25.095Z,1.90
2019-01-10T03:50:52.846Z,1.23
2019-01-10T03:53:22.659Z,1.47
2019-01-10T03:55:50.438Z,1.30
2019-01-10T03:58:18.484Z,1.70
2019-01-10T04:00:47.661Z,1.70
2019-01-10T04:03:15.838Z,2.47
2019-01-10T04:05:44.119Z,2.70
2019-01-10T04:08:12.208Z,2.23
2019-01-10T04:10:40.231Z,2.47
2019-01-10T04:13:07.976Z,3.17
2019-01-10T04:15:36.394Z,3.47
2019-01-10T04:18:04.336Z,3.83
2019-01-10T04:20:32.156Z,3.50
2019-01-10T04:23:00.090Z,3.80
2019-01-10T04:25:28.006Z,3.80
2019-01-10T04:27:56.131Z,4.57
2019-01-10T04:30:24.529Z,4.33
2019-01-10T04:32:52.637Z,5.10
2019-01-10T04:35:20.420Z,5.80
2019-01-10T04:37:48.539Z,5.77
2019-01-10T04:40:18.562Z,7.07
2019-01-10T04:42:46.436Z,5.77
2019-01-10T04:45:14.904Z,6.57
2019-01-10T04:47:42.877Z,6.13
2019-01-10T04:50:11.470Z,5.63
2019-01-10T04:52:39.985Z,5.60
2019-01-10T04:55:08.822Z,4.90
2019-01-10T04:57:36.984Z,6.57
2019-01-10T05:00:11.479Z,5.23
2019-01-10T05:02:39.359Z,5.40
2019-01-10T05:05:07.589Z,5.13
2019-01-10T05:07:35.372Z,5.53
2019-01-10T05:10:03.988Z,7.03
2019-01-10T05:12:31.879Z,8.10
2019-01-10T05:15:00.322Z,8.23
2019-01-10T05:17:30.199Z,8.20
2019-01-10T05:19:57.900Z,7.10
2019-01-10T05:22:26.162Z,6.93
2019-01-10T05:24:54.082Z,6.30
2019-01-10T05:27:21.854Z,5.33
2019-01-10T05:29:49.632Z,6.53
2019-01-10T05:32:17.764Z,8.40
2019-01-10T05:34:45.828Z,9.43
2019-01-10T05:37:13.674Z,10.43
2019-01-10T05:39:47.421Z,9.57
2019-01-10T05:42:13.516Z,9.43
2019-01-10T05:44:41.590Z,8.93
2019-01-10T05:47:10.015Z,9.13
2019-01-10T05:49:37.795Z,9.43
2019-01-10T05:52:05.597Z,7.13
2019-01-10T05:54:33.430Z,6.80
2019-01-10T05:57:01.505Z,6.57
2019-01-10T05:59:29.603Z,7.87
2019-01-10T06:01:57.396Z,9.17
2019-01-10T06:04:25.947Z,9.53
2019-01-10T06:06:53.848Z,9.97
2019-01-10T06:09:21.769Z,9.37
2019-01-10T06:11:52.205Z,9.50
2019-01-10T06:14:20.063Z,9.47
2019-01-10T06:16:48.311Z,9.23
2019-01-10T06:19:16.232Z,9.03
2019-01-10T06:21:44.050Z,8.43
2019-01-10T06:24:12.217Z,12.23
2019-01-10T06:26:40.004Z,11.87
2019-01-10T06:29:07.822Z,11.57
2019-01-10T06:31:35.615Z,11.37
2019-01-10T06:34:03.740Z,9.80
2019-01-10T06:36:32.413Z,10.07
2019-01-10T06:39:00.395Z,10.87
2019-01-10T06:41:28.158Z,9.60
2019-01-10T06:43:56.185Z,8.40
2019-01-10T06:46:23.967Z,7.33
2019-01-10T06:48:51.836Z,7.10
2019-01-10T06:51:19.839Z,6.93
2019-01-10T06:53:48.075Z,6.87
2019-01-10T06:56:15.820Z,7.33
2019-01-10T06:58:43.654Z,6.17
2019-01-10T07:01:11.457Z,7.03
2019-01-10T07:03:39.270Z,6.43
2019-01-10T07:06:07.143Z,5.77
2019-01-10T07:08:34.925Z,6.10
2019-01-10T07:11:02.996Z,6.73
2019-01-10T07:13:30.733Z,5.43
2019-01-10T07:15:58.807Z,7.05
2019-01-10T07:18:26.650Z,6.33
2019-01-10T07:20:54.888Z,4.67
2019-01-10T07:23:25.282Z,5.40
2019-01-10T07:25:55.235Z,4.40
2019-01-10T07:28:23.631Z,4.67
2019-01-10T07:30:53.704Z,5.00
2019-01-10T07:33:22.136Z,6.60
2019-01-10T07:35:53.360Z,6.90
2019-01-10T07:38:21.308Z,5.10
2019-01-10T07:40:49.263Z,4.47
2019-01-10T07:43:20.322Z,6.70
2019-01-10T07:45:48.403Z,5.27
2019-01-10T07:48:16.248Z,5.50
2019-01-10T07:50:44.023Z,4.70
2019-01-10T07:53:11.799Z,5.30
2019-01-10T07:55:40.515Z,6.40
2019-01-10T07:58:09.420Z,6.47
2019-01-10T08:00:37.166Z,6.97
2019-01-10T08:03:05.051Z,7.40
2019-01-10T08:05:33.288Z,6.37
2019-01-10T08:08:01.144Z,6.57
2019-01-10T08:10:29.221Z,8.63
2019-01-10T08:12:58.612Z,10.50
2019-01-10T08:15:26.230Z,9.90
2019-01-10T08:17:54.175Z,8.33
2019-01-10T08:20:22.281Z,6.70
2019-01-10T08:22:50.452Z,6.53
2019-01-10T08:25:18.246Z,4.70
2019-01-10T08:27:47.655Z,4.87
2019-01-10T08:30:20.391Z,5.00
2019-01-10T08:32:48.511Z,4.73
2019-01-10T08:35:19.039Z,4.93
2019-01-10T08:37:47.112Z,5.70
2019-01-10T08:40:15.399Z,4.50
2019-01-10T08:42:43.159Z,4.87
2019-01-10T08:45:21.371Z,5.17
2019-01-10T08:47:43.059Z,6.27
2019-01-10T08:50:14.657Z,6.93
2019-01-10T08:52:42.481Z,6.43
2019-01-10T08:55:10.344Z,6.13
2019-01-10T08:57:38.954Z,5.13
2019-01-10T09:00:10.377Z,5.30
2019-01-10T09:02:38.669Z,5.33
2019-01-10T09:05:07.091Z,5.57
2019-01-10T09:07:35.051Z,5.43
2019-01-10T09:10:03.994Z,5.67
2019-01-10T09:12:32.167Z,6.67
2019-01-10T09:14:59.877Z,5.43
2019-01-10T09:17:27.689Z,4.10
2019-01-10T09:19:55.471Z,4.53
2019-01-10T09:22:23.496Z,3.30
2019-01-10T09:24:51.258Z,3.23
2019-01-10T09:27:19.421Z,3.80
2019-01-10T09:29:47.619Z,4.27
2019-01-10T09:32:15.414Z,3.17
2019-01-10T09:34:44.599Z,3.10
2019-01-10T09:37:12.686Z,3.20
2019-01-10T09:39:40.608Z,3.03
2019-01-10T09:42:08.455Z,3.03
2019-01-10T09:44:36.585Z,2.60
2019-01-10T09:47:04.608Z,3.00
2019-01-10T09:49:32.420Z,3.90
2019-01-10T09:52:00.365Z,4.00
2019-01-10T09:54:28.399Z,2.50
2019-01-10T09:56:56.476Z,3.70
2019-01-10T09:59:24.306Z,3.80
2019-01-10T10:01:52.753Z,4.37
2019-01-10T10:04:20.839Z,4.60
2019-01-10T10:06:48.904Z,5.13
2019-01-10T10:09:18.251Z,4.70
2019-01-10T10:11:46.094Z,4.70
2019-01-10T10:14:14.114Z,5.43
2019-01-10T10:16:42.095Z,7.37
2019-01-10T10:19:11.344Z,5.77
2019-01-10T10:21:39.467Z,5.60
2019-01-10T10:24:07.420Z,5.30
2019-01-10T10:26:35.943Z,4.87
2019-01-10T10:29:05.107Z,3.77
2019-01-10T10:31:33.189Z,4.43
2019-01-10T10:34:01.078Z,5.27
2019-01-10T10:36:30.039Z,4.23
2019-01-10T10:38:58.175Z,5.97
2019-01-10T10:41:25.964Z,4.93
2019-01-10T10:43:54.050Z,6.00
2019-01-10T10:46:22.603Z,5.70
2019-01-10T10:48:50.386Z,3.63
2019-01-10T10:51:18.673Z,2.87
2019-01-10T10:53:47.359Z,3.53
2019-01-10T10:56:15.272Z,3.93
2019-01-10T10:58:43.471Z,2.20
2019-01-10T11:01:12.862Z,1.67
2019-01-10T11:03:41.095Z,2.77
2019-01-10T11:06:09.259Z,2.70
2019-01-10T11:08:37.518Z,2.83
2019-01-10T11:11:05.504Z,3.60
2019-01-10T11:13:33.297Z,3.43
2019-01-10T11:16:10.238Z,3.90
2019-01-10T11:18:30.931Z,3.57
2019-01-10T11:20:59.872Z,4.87
2019-01-10T11:23:28.280Z,3.50
2019-01-10T11:25:56.349Z,3.57
2019-01-10T11:28:24.097Z,3.60
2019-01-10T11:30:51.907Z,3.50
2019-01-10T11:33:19.807Z,3.23
2019-01-10T11:35:47.904Z,2.83
2019-01-10T11:38:16.245Z,3.00
2019-01-10T11:40:44.391Z,3.30
2019-01-10T11:43:12.433Z,3.70
2019-01-10T11:45:40.228Z,3.73
2019-01-10T11:48:08.866Z,3.90
2019-01-10T11:50:37.090Z,4.50
2019-01-10T11:53:05.564Z,3.97
2019-01-10T11:55:33.511Z,3.00
2019-01-10T11:58:01.392Z,2.30
2019-01-10T12:00:30.976Z,1.80
2019-01-10T12:03:00.800Z,2.43
2019-01-10T12:05:30.818Z,1.33
2019-01-10T12:07:58.582Z,1.53
2019-01-10T12:10:26.621Z,1.53
2019-01-10T12:12:54.818Z,1.80
2019-01-10T12:15:22.927Z,1.53
2019-01-10T12:17:50.848Z,1.07
2019-01-10T12:20:19.008Z,1.20
2019-01-10T12:22:48.195Z,1.60
2019-01-10T12:25:16.267Z,2.07
2019-01-10T12:27:45.211Z,1.57
2019-01-10T12:30:16.485Z,1.97
2019-01-10T12:32:47.977Z,1.53
2019-01-10T12:35:15.732Z,1.70
2019-01-10T12:37:43.667Z,1.20
2019-01-10T12:40:12.347Z,1.50
2019-01-10T12:42:40.178Z,2.47
2019-01-10T12:45:10.690Z,2.23
2019-01-10T12:47:38.989Z,2.23
2019-01-10T12:50:11.867Z,2.20
2019-01-10T12:52:39.976Z,1.53
2019-01-10T12:55:07.786Z,3.43
2019-01-10T12:57:35.876Z,2.50
2019-01-10T13:00:05.227Z,1.97
2019-01-10T13:02:32.946Z,2.50
2019-01-10T13:05:01.103Z,2.17
2019-01-10T13:07:29.035Z,2.03
2019-01-10T13:09:56.834Z,1.57
2019-01-10T13:12:24.572Z,1.77
2019-01-10T13:14:52.885Z,1.60
2019-01-10T13:17:21.013Z,2.30
2019-01-10T13:19:48.971Z,2.03
2019-01-10T13:22:16.597Z,2.50
2019-01-10T13:24:45.048Z,1.73
2019-01-10T13:27:12.879Z,15.03
2019-01-10T13:29:40.683Z,1.77
2019-01-10T13:32:08.531Z,1.10
2019-01-10T13:34:36.622Z,2.03
2019-01-10T13:37:04.899Z,1.83
2019-01-10T13:39:33.270Z,2.13
2019-01-10T13:42:01.603Z,2.70
2019-01-10T13:44:29.602Z,2.67
2019-01-10T13:46:57.548Z,1.77
2019-01-10T13:49:25.299Z,1.60
2019-01-10T13:51:54.048Z,1.77
2019-01-10T13:54:22.153Z,2.10
2019-01-10T13:56:50.363Z,2.07
2019-01-10T13:59:18.296Z,2.07
2019-01-10T14:01:47.571Z,2.20
2019-01-10T14:04:15.318Z,2.67
2019-01-10T14:06:43.556Z,2.30
2019-01-10T14:09:12.439Z,2.40
2019-01-10T14:11:40.226Z,1.93
2019-01-10T14:14:08.140Z,2.43
2019-01-10T14:16:46.317Z,2.27
2019-01-10T14:19:14.081Z,2.63
2019-01-10T14:21:47.277Z,3.33
2019-01-10T14:24:15.741Z,4.60
2019-01-10T14:26:45.746Z,5.07
2019-01-10T14:29:13.651Z,4.00
2019-01-10T14:31:41.987Z,3.40
2019-01-10T14:34:14.194Z,5.40
2019-01-10T14:36:40.625Z,9.40
2019-01-10T14:39:20.944Z,4.17
2019-01-10T14:41:48.664Z,9.07
2019-01-10T14:44:16.424Z,14.87
2019-01-10T14:46:57.663Z,5.00
2019-01-10T14:49:25.992Z,5.00
2019-01-10T14:51:53.771Z,4.07
2019-01-10T14:54:21.601Z,4.07
2019-01-10T14:56:49.736Z,4.70
2019-01-10T14:59:17.803Z,4.47
2019-01-10T15:01:46.117Z,4.73
2019-01-10T15:04:14.118Z,5.90
2019-01-10T15:06:41.887Z,5.00
2019-01-10T15:09:10.822Z,4.57
2019-01-10T15:11:38.966Z,5.17
2019-01-10T15:14:07.248Z,4.80
2019-01-10T15:16:35.195Z,6.80
2019-01-10T15:19:03.646Z,7.30
2019-01-10T15:21:31.423Z,7.57
2019-01-10T15:23:59.223Z,6.80
2019-01-10T15:26:27.383Z,7.33
2019-01-10T15:28:55.142Z,7.87
2019-01-10T15:31:25.081Z,9.47
2019-01-10T15:33:53.119Z,4.37
2019-01-10T15:36:21.191Z,4.30
2019-01-10T15:38:49.341Z,5.20
2019-01-10T15:41:18.929Z,6.23
2019-01-10T15:43:46.646Z,6.67
2019-01-10T15:46:15.053Z,6.70
2019-01-10T15:48:43.110Z,6.27
2019-01-10T15:51:11.110Z,7.17
2019-01-10T15:53:44.546Z,7.97
2019-01-10T15:56:12.378Z,8.30
2019-01-10T15:58:40.560Z,7.43
2019-01-10T16:01:08.431Z,8.13
2019-01-10T16:03:38.496Z,10.90
2019-01-10T16:06:07.103Z,9.47
2019-01-10T16:08:35.319Z,9.67
2019-01-10T16:11:04.448Z,10.73
2019-01-10T16:13:32.556Z,11.77
2019-01-10T16:16:02.423Z,20.57
2019-01-10T16:18:30.499Z,18.13
2019-01-10T16:20:58.545Z,18.67
2019-01-10T16:23:30.983Z,15.45
2019-01-10T16:25:58.763Z,10.83
2019-01-10T16:28:28.730Z,8.43
2019-01-10T16:30:56.908Z,8.53
2019-01-10T16:33:24.827Z,8.40
2019-01-10T16:35:59.726Z,9.80
2019-01-10T16:38:27.774Z,8.23
2019-01-10T16:40:55.542Z,11.33
2019-01-10T16:43:41.814Z,11.47
2019-01-10T16:46:10.666Z,8.70
2019-01-10T16:48:38.471Z,7.70
2019-01-10T16:51:07.532Z,6.90
2019-01-10T16:53:35.353Z,17.17
2019-01-10T16:56:03.549Z,9.27
2019-01-10T16:58:32.016Z,5.70
2019-01-10T17:01:00.183Z,5.17
2019-01-10T17:03:28.429Z,8.27
2019-01-10T17:06:10.711Z,8.10
2019-01-10T17:08:38.559Z,10.40
2019-01-10T17:11:06.447Z,7.70
2019-01-10T17:13:57.510Z,5.43
2019-01-10T17:16:25.397Z,5.53
2019-01-10T17:18:53.168Z,6.07
2019-01-10T17:21:51.071Z,7.30
2019-01-10T17:24:19.244Z,7.50
2019-01-10T17:26:49.162Z,9.10
2019-01-10T17:29:17.199Z,11.10
2019-01-10T17:31:45.238Z,12.03
2019-01-10T17:34:29.585Z,12.80
2019-01-10T17:36:57.345Z,13.00
2019-01-10T17:39:25.798Z,14.37
2019-01-10T17:42:02.222Z,15.53
2019-01-10T17:44:30.035Z,19.70
2019-01-10T17:47:06.901Z,19.70
2019-01-10T17:49:34.678Z,24.30
2019-01-10T17:52:02.617Z,34.77
2019-01-10T17:54:32.553Z,20.40
2019-01-10T17:57:00.427Z,12.93
2019-01-10T17:59:28.255Z,12.77
2019-01-10T18:02:21.944Z,12.17
2019-01-10T18:04:52.254Z,12.90
2019-01-10T18:07:20.114Z,12.90
2019-01-10T18:09:48.101Z,12.97
2019-01-10T18:12:18.084Z,13.47
2019-01-10T18:14:45.989Z,17.87
2019-01-10T18:17:14.284Z,17.77
2019-01-10T18:19:59.705Z,13.90
2019-01-10T18:22:27.510Z,13.93
2019-01-10T18:24:55.573Z,12.77
2019-01-10T18:27:37.568Z,13.47
2019-01-10T18:30:08.404Z,13.07
2019-01-10T18:32:36.307Z,13.63
2019-01-10T18:35:09.652Z,14.25
2019-01-10T18:37:37.779Z,12.17
2019-01-10T18:40:06.219Z,11.77
2019-01-10T18:42:37.802Z,11.07
2019-01-10T18:45:07.924Z,12.20
2019-01-10T18:47:35.778Z,12.47
2019-01-10T18:50:10.785Z,12.80
2019-01-10T18:52:38.638Z,14.03
2019-01-10T18:55:06.577Z,13.70
2019-01-10T18:57:52.531Z,15.43
2019-01-10T19:00:25.330Z,16.80
2019-01-10T19:02:53.354Z,16.47
2019-01-10T19:05:59.520Z,16.47
2019-01-10T19:08:27.268Z,16.37
2019-01-10T19:10:55.158Z,17.40
2019-01-10T19:13:26.712Z,17.37
2019-01-10T19:15:54.479Z,17.20
2019-01-10T19:18:23.641Z,17.20
2019-01-10T19:20:51.721Z,18.53
2019-01-10T19:23:21.690Z,18.77
2019-01-10T19:25:49.472Z,19.47
2019-01-10T19:28:17.794Z,19.90
2019-01-10T19:30:45.947Z,20.83
2019-01-10T19:33:13.919Z,22.83
2019-01-10T19:35:41.656Z,27.58
2019-01-10T19:38:15.406Z,22.73
2019-01-10T19:40:43.154Z,23.20
2019-01-10T19:43:12.408Z,21.23
2019-01-10T19:45:40.599Z,21.43
2019-01-10T19:48:09.868Z,21.20
2019-01-10T19:50:40.204Z,21.47
2019-01-10T19:53:07.986Z,21.67
2019-01-10T19:55:43.399Z,21.57
2019-01-10T19:58:12.024Z,22.80
2019-01-10T20:00:55.697Z,24.20
2019-01-10T20:03:24.747Z,20.87
2019-01-10T20:05:52.698Z,25.43
2019-01-10T20:08:21.015Z,21.67
2019-01-10T20:10:51.450Z,19.43
2019-01-10T20:13:19.612Z,22.87
2019-01-10T20:15:47.368Z,22.50
2019-01-10T20:18:16.316Z,21.47
2019-01-10T20:20:44.391Z,22.93
2019-01-10T20:23:27.979Z,21.90
2019-01-10T20:25:57.900Z,21.90
2019-01-10T20:28:25.652Z,22.77
2019-01-10T20:30:53.460Z,21.47
2019-01-10T20:33:21.256Z,23.60
2019-01-10T20:35:49.435Z,23.10
2019-01-10T20:38:17.264Z,24.60
2019-01-10T20:40:46.745Z,26.93
2019-01-10T20:43:16.744Z,29.27
2019-01-10T20:45:44.625Z,28.33
2019-01-10T20:48:13.075Z,30.93
2019-01-10T20:50:40.810Z,31.43
2019-01-10T20:53:09.145Z,34.60
2019-01-10T20:55:37.186Z,35.93
2019-01-10T20:58:05.287Z,38.00
2019-01-10T21:00:33.329Z,35.63
2019-01-10T21:03:01.167Z,38.63
2019-01-10T21:05:29.694Z,36.33
2019-01-10T21:07:57.492Z,35.87
2019-01-10T21:10:25.574Z,34.33
2019-01-10T21:12:53.619Z,36.70
2019-01-10T21:15:23.883Z,36.07
2019-01-10T21:17:52.300Z,37.00
2019-01-10T21:20:20.074Z,35.80
2019-01-10T21:22:48.736Z,36.93
2019-01-10T21:25:16.912Z,38.27
2019-01-10T21:27:44.945Z,36.43
2019-01-10T21:30:15.528Z,41.30
2019-01-10T21:32:43.467Z,39.40
2019-01-10T21:35:11.559Z,41.03
2019-01-10T21:37:39.408Z,43.23
2019-01-10T21:40:09.772Z,38.27
2019-01-10T21:42:37.552Z,40.33
2019-01-10T21:45:09.510Z,40.37
2019-01-10T21:47:38.015Z,42.73
2019-01-10T21:50:07.566Z,45.97
2019-01-10T21:52:35.774Z,44.73
2019-01-10T21:55:05.859Z,45.87
2019-01-10T21:57:34.233Z,46.10
2019-01-10T22:00:05.553Z,45.27
2019-01-10T22:02:33.685Z,48.17
2019-01-10T22:05:01.436Z,50.07
2019-01-10T22:07:29.250Z,49.20
2019-01-10T22:09:57.032Z,49.77
2019-01-10T22:12:25.161Z,50.03
2019-01-10T22:14:55.074Z,50.80
2019-01-10T22:17:23.196Z,48.27
2019-01-10T22:19:50.928Z,50.33
2019-01-10T22:22:18.851Z,50.83
2019-01-10T22:24:46.985Z,51.97
2019-01-10T22:27:14.726Z,52.17
2019-01-10T22:29:42.864Z,50.87
2019-01-10T22:32:11.105Z,52.87
2019-01-10T22:34:38.839Z,49.30
2019-01-10T22:37:06.938Z,51.40
2019-01-10T22:39:34.601Z,51.77
2019-01-10T22:42:02.674Z,50.90
2019-01-10T22:44:30.520Z,53.13
2019-01-10T22:46:58.322Z,53.70
2019-01-10T22:49:26.034Z,54.57
2019-01-10T22:51:54.282Z,52.97
2019-01-10T22:54:22.443Z,52.63
2019-01-10T22:56:50.346Z,54.70
2019-01-10T22:59:18.481Z,54.07
2019-01-10T23:01:55.128Z,52.83
2019-01-10T23:04:37.141Z,57.23
2019-01-10T23:07:15.122Z,58.33
2019-01-10T23:09:42.879Z,55.53
2019-01-10T23:12:10.651Z,55.77
2019-01-10T23:14:39.363Z,57.17
2019-01-10T23:17:07.594Z,56.43
2019-01-10T23:19:44.248Z,56.73
2019-01-10T23:22:13.660Z,57.17
2019-01-10T23:24:41.440Z,59.37
2019-01-10T23:27:09.288Z,60.13
2019-01-10T23:29:37.658Z,62.63
2019-01-10T23:32:14.210Z,62.87
2019-01-10T23:34:48.870Z,61.27
2019-01-10T23:37:21.539Z,62.93
2019-01-10T23:39:49.315Z,67.60
2019-01-10T23:42:17.408Z,70.27
2019-01-10T23:44:45.170Z,66.33
2019-01-10T23:47:12.967Z,69.67
2019-01-10T23:49:40.761Z,69.93
2019-01-10T23:52:08.499Z,69.60
2019-01-10T23:54:36.366Z,69.77
2019-01-10T23:57:04.156Z,69.00
2019-01-10T23:59:31.930Z,69.33
